Time;durP1;ratioP1;P1;durP2;ratioP2;P2;SDS_P1;SDS_P2;PMS_P1;PMS_P2;Temp;Humidity;BMP_temperature;BMP_pressure;BME280_temperature;BME280_humidity;BME280_pressure;Samples;Min_cycle;Max_cycle;Signal;HPM_P1;HPM_P2
2021/01/12 00:01:27;;;;;;;;;;;;;;;;;;4994213;28;20122;-69
2021/01/12 00:03:53;;;;;;;;;;;;;;;;;;4994162;28;19926;-69
2021/01/12 00:06:20;;;;;;;;;;;;;;;;;;4994058;28;19933;-69
2021/01/12 00:08:46;;;;;;;;;;;;;;;;;;4992952;28;19932;-69
2021/01/12 00:11:13;;;;;;;;;;;;;;;;;;4993781;28;19932;-69
2021/01/12 00:13:39;;;;;;;;;;;;;;;;;;4995216;28;19987;-68
2021/01/12 00:16:06;;;;;;;;;;;;;;;;;;4994483;28;19926;-68
2021/01/12 00:18:32;;;;;;;;;;;;;;;;;;4994305;28;20009;-68
2021/01/12 00:20:59;;;;;;;;;;;;;;;;;;4993632;28;20020;-69
2021/01/12 00:23:25;;;;;;;;;;;;;;;;;;4998314;28;19926;-68
2021/01/12 00:25:52;;;;;;;;;;;;;;;;;;4994266;28;19933;-68
2021/01/12 00:28:18;;;;;;;;;;;;;;;;;;4995466;28;19933;-68
2021/01/12 00:30:44;;;;;;;;;;;;;;;;;;4994585;28;19930;-67
2021/01/12 00:33:11;;;;;;;;;;;;;;;;;;5001472;28;19940;-68
2021/01/12 00:35:37;;;;;;;;;;;;;;;;;;4993624;28;19926;-68
2021/01/12 00:38:04;;;;;;;;;;;;;;;;;;4999227;28;19932;-68
2021/01/12 00:40:30;;;;;;;;;;;;;;;;;;4995103;28;19930;-68
2021/01/12 00:42:57;;;;;;;;;;;;;;;;;;4995291;28;20008;-67
2021/01/12 00:45:24;;;;;;;;;;;;;;;;;;5001444;28;20391;-68
2021/01/12 00:47:50;;;;;;;;;;;;;;;;;;4993951;28;19932;-68
2021/01/12 00:50:17;;;;;;;;;;;;;;;;;;4992675;28;19933;-67
2021/01/12 00:52:43;;;;;;;;;;;;;;;;;;4993338;28;20364;-68
2021/01/12 00:55:09;;;;;;;;;;;;;;;;;;5001101;28;20269;-66
2021/01/12 00:57:36;;;;;;;;;;;;;;;;;;4993963;28;20372;-68
2021/01/12 01:00:02;;;;;;;;;;;;;;;;;;4993436;28;20336;-68
2021/01/12 01:02:29;;;;;;;;;;;;;;;;;;4994634;28;19926;-67
2021/01/12 01:04:55;;;;;;;;;;;;;;;;;;4993297;28;19973;-69
2021/01/12 01:07:22;;;;;;;;;;;;;;;;;;4993463;28;19929;-68
2021/01/12 01:09:48;;;;;;;;;;;;;;;;;;4992850;28;19949;-68
2021/01/12 01:12:15;;;;;;;;;;;;;;;;;;4992392;28;19932;-68
2021/01/12 01:14:41;;;;;;;;;;;;;;;;;;4992481;28;19983;-68
2021/01/12 01:17:07;;;;;;;;;;;;;;;;;;4989304;28;19925;-67
2021/01/12 01:19:34;;;;;;;;;;;;;;;;;;4996718;28;19926;-67
2021/01/12 01:22:00;;;;;;;;;;;;;;;;;;4992186;28;19936;-67
2021/01/12 01:24:27;;;;;;;;;;;;;;;;;;4988389;28;19933;-68
2021/01/12 01:26:53;;;;;;;;;;;;;;;;;;4989193;28;19957;-67
2021/01/12 01:29:20;;;;;;;;;;;;;;;;;;4997243;28;20107;-68
2021/01/12 01:31:46;;;;;;;;;;;;;;;;;;4994718;28;19925;-67
2021/01/12 01:34:13;;;;;;;;;;;;;;;;;;4993245;28;19926;-66
2021/01/12 01:36:39;;;;;;;;;;;;;;;;;;4992716;28;19925;-68
2021/01/12 01:39:06;;;;;;;;;;;;;;;;;;4999259;28;19932;-67
2021/01/12 01:41:32;;;;;;;;;;;;;;;;;;4993015;28;19980;-66
2021/01/12 01:43:59;;;;;;;;;;;;;;;;;;4993411;28;19926;-66
2021/01/12 01:46:25;;;;;;;;;;;;;;;;;;4993808;28;19926;-68
2021/01/12 01:48:52;;;;;;;;;;;;;;;;;;4992520;28;19926;-70
2021/01/12 01:51:18;;;;;;;;;;;;;;;;;;4992765;28;19926;-67
2021/01/12 01:53:44;;;;;;;;;;;;;;;;;;4992579;28;19926;-66
2021/01/12 01:56:11;;;;;;;;;;;;;;;;;;4989722;28;19925;-67
2021/01/12 01:58:37;;;;;;;;;;;;;;;;;;4993426;28;19930;-68
2021/01/12 02:01:04;;;;;;;;;;;;;;;;;;4992214;28;19926;-68
2021/01/12 02:03:30;;;;;;;;;;;;;;;;;;4992893;28;20116;-66
2021/01/12 02:05:57;;;;;;;;;;;;;;;;;;4995947;28;20285;-68
2021/01/12 02:08:23;;;;;;;;;;;;;;;;;;4993723;28;20315;-67
2021/01/12 02:10:50;;;;;;;;;;;;;;;;;;4994424;28;20292;-68
2021/01/12 02:13:16;;;;;;;;;;;;;;;;;;4992616;28;20404;-67
2021/01/12 02:15:42;;;;;;;;;;;;;;;;;;4992018;28;20312;-68
2021/01/12 02:18:09;;;;;;;;;;;;;;;;;;4992095;28;20344;-66
2021/01/12 02:20:35;;;;;;;;;;;;;;;;;;4993322;28;20020;-68
2021/01/12 02:23:02;;;;;;;;;;;;;;;;;;4990565;28;19932;-67
2021/01/12 02:25:28;;;;;;;;;;;;;;;;;;4997348;28;19925;-68
2021/01/12 02:27:55;;;;;;;;;;;;;;;;;;4989875;28;19926;-68
2021/01/12 02:30:21;;;;;;;;;;;;;;;;;;4991394;28;19934;-66
2021/01/12 02:32:48;;;;;;;;;;;;;;;;;;4992027;28;19930;-66
2021/01/12 02:35:14;;;;;;;;;;;;;;;;;;4990461;28;19936;-67
2021/01/12 02:37:43;;;;;;;;;;;;;;;;;;4991452;28;19951;-67
2021/01/12 02:40:09;;;;;;;;;;;;;;;;;;4992094;28;20285;-68
2021/01/12 02:42:36;;;;;;;;;;;;;;;;;;4992245;28;20012;-67
2021/01/12 02:45:02;;;;;;;;;;;;;;;;;;4991950;28;19933;-67
2021/01/12 02:47:29;;;;;;;;;;;;;;;;;;4995199;28;19926;-67
2021/01/12 02:49:55;;;;;;;;;;;;;;;;;;4989520;28;19926;-68
2021/01/12 02:52:21;;;;;;;;;;;;;;;;;;4992036;28;19930;-66
2021/01/12 02:54:48;;;;;;;;;;;;;;;;;;4999216;28;20020;-69
2021/01/12 02:57:14;;;;;;;;;;;;;;;;;;4992311;28;19926;-67
2021/01/12 02:59:41;;;;;;;;;;;;;;;;;;4996059;28;20450;-67
2021/01/12 03:02:07;;;;;;;;;;;;;;;;;;4991671;28;20316;-68
2021/01/12 03:04:34;;;;;;;;;;;;;;;;;;4990085;28;20355;-69
2021/01/12 03:07:00;;;;;;;;;;;;;;;;;;4991342;28;19926;-69
2021/01/12 03:09:27;;;;;;;;;;;;;;;;;;4991282;28;19926;-69
2021/01/12 03:11:53;;;;;;;;;;;;;;;;;;4991085;28;19934;-68
2021/01/12 03:14:20;;;;;;;;;;;;;;;;;;4991967;28;19979;-68
2021/01/12 03:16:47;;;;;;;;;;;;;;;;;;4991179;28;19932;-69
2021/01/12 03:19:13;;;;;;;;;;;;;;;;;;4990535;28;20001;-64
2021/01/12 03:21:39;;;;;;;;;;;;;;;;;;4991043;28;19934;-67
2021/01/12 03:24:06;;;;;;;;;;;;;;;;;;4991189;28;19930;-67
2021/01/12 03:26:32;;;;;;;;;;;;;;;;;;4990449;28;20403;-67
2021/01/12 03:28:59;;;;;;;;;;;;;;;;;;4984667;28;19987;-67
2021/01/12 03:31:25;;;;;;;;;;;;;;;;;;4991526;28;19926;-67
2021/01/12 03:33:52;;;;;;;;;;;;;;;;;;4992372;28;19955;-68
2021/01/12 03:36:18;;;;;;;;;;;;;;;;;;4991035;28;19926;-66
2021/01/12 03:38:45;;;;;;;;;;;;;;;;;;4995629;28;19972;-68
2021/01/12 03:41:11;;;;;;;;;;;;;;;;;;5002070;28;19932;-67
2021/01/12 03:43:37;;;;;;;;;;;;;;;;;;4994547;28;19937;-66
2021/01/12 03:46:04;;;;;;;;;;;;;;;;;;4993143;28;19932;-67
2021/01/12 03:48:30;;;;;;;;;;;;;;;;;;4996193;28;19934;-67
2021/01/12 03:50:57;;;;;;;;;;;;;;;;;;4995305;28;20030;-67
2021/01/12 03:53:23;;;;;;;;;;;;;;;;;;4997208;28;20016;-66
2021/01/12 03:55:50;;;;;;;;;;;;;;;;;;4996389;28;19956;-67
2021/01/12 03:58:16;;;;;;;;;;;;;;;;;;4994624;28;19926;-66
2021/01/12 04:00:43;;;;;;;;;;;;;;;;;;4993406;28;19926;-67
2021/01/12 04:03:09;;;;;;;;;;;;;;;;;;4993556;28;20311;-66
2021/01/12 04:05:36;;;;;;;;;;;;;;;;;;4993555;28;20424;-68
2021/01/12 04:08:02;;;;;;;;;;;;;;;;;;4994554;28;20303;-67
2021/01/12 04:10:28;;;;;;;;;;;;;;;;;;4991162;28;19930;-67
2021/01/12 04:12:55;;;;;;;;;;;;;;;;;;4993221;28;19937;-66
2021/01/12 04:15:21;;;;;;;;;;;;;;;;;;4993685;28;19972;-66
2021/01/12 04:17:48;;;;;;;;;;;;;;;;;;4993479;28;20007;-67
2021/01/12 04:20:14;;;;;;;;;;;;;;;;;;4987682;28;20410;-67
2021/01/12 04:22:41;;;;;;;;;;;;;;;;;;4992763;28;20361;-65
2021/01/12 04:25:07;;;;;;;;;;;;;;;;;;4994216;28;19926;-67
2021/01/12 04:27:34;;;;;;;;;;;;;;;;;;4994540;28;19925;-67
2021/01/12 04:30:00;;;;;;;;;;;;;;;;;;4993491;28;19930;-67
2021/01/12 04:32:26;;;;;;;;;;;;;;;;;;4996594;28;20324;-67
2021/01/12 04:34:53;;;;;;;;;;;;;;;;;;4993231;28;19929;-68
2021/01/12 04:37:19;;;;;;;;;;;;;;;;;;4993961;28;19926;-66
2021/01/12 04:39:46;;;;;;;;;;;;;;;;;;4993684;28;19996;-67
2021/01/12 04:42:12;;;;;;;;;;;;;;;;;;4993574;28;19926;-68
2021/01/12 04:44:39;;;;;;;;;;;;;;;;;;4993519;28;19926;-68
2021/01/12 04:47:05;;;;;;;;;;;;;;;;;;4993884;28;19930;-68
2021/01/12 04:49:32;;;;;;;;;;;;;;;;;;4998270;28;19925;-68
2021/01/12 04:51:58;;;;;;;;;;;;;;;;;;4992463;28;19926;-68
2021/01/12 04:54:24;;;;;;;;;;;;;;;;;;4992649;28;19926;-68
2021/01/12 04:56:51;;;;;;;;;;;;;;;;;;4993272;28;20044;-66
2021/01/12 04:59:17;;;;;;;;;;;;;;;;;;4993887;28;20380;-67
2021/01/12 05:01:44;;;;;;;;;;;;;;;;;;4993869;28;20291;-67
2021/01/12 05:04:10;;;;;;;;;;;;;;;;;;4993532;28;19956;-68
2021/01/12 05:06:37;;;;;;;;;;;;;;;;;;4996801;28;20299;-68
2021/01/12 05:09:03;;;;;;;;;;;;;;;;;;4992822;28;19930;-68
2021/01/12 05:11:30;;;;;;;;;;;;;;;;;;4993150;28;19979;-67
2021/01/12 05:13:56;;;;;;;;;;;;;;;;;;4988883;28;19941;-68
2021/01/12 05:16:23;;;;;;;;;;;;;;;;;;4992064;28;19926;-68
2021/01/12 05:18:49;;;;;;;;;;;;;;;;;;4993129;28;19925;-68
2021/01/12 05:21:16;;;;;;;;;;;;;;;;;;4993356;28;19926;-68
2021/01/12 05:23:42;;;;;;;;;;;;;;;;;;4993840;28;20392;-69
2021/01/12 05:26:09;;;;;;;;;;;;;;;;;;4992960;28;19932;-68
2021/01/12 05:28:35;;;;;;;;;;;;;;;;;;4991750;28;19930;-69
2021/01/12 05:31:02;;;;;;;;;;;;;;;;;;4992586;28;20372;-69
2021/01/12 05:33:28;;;;;;;;;;;;;;;;;;4994993;28;19932;-68
2021/01/12 05:35:54;;;;;;;;;;;;;;;;;;4992535;28;19925;-69
2021/01/12 05:38:21;;;;;;;;;;;;;;;;;;4992120;28;19932;-68
2021/01/12 05:40:47;;;;;;;;;;;;;;;;;;4991733;28;19926;-68
2021/01/12 05:43:14;;;;;;;;;;;;;;;;;;4993111;28;20304;-70
2021/01/12 05:45:40;;;;;;;;;;;;;;;;;;4992083;28;19929;-68
2021/01/12 05:48:07;;;;;;;;;;;;;;;;;;4992627;28;19929;-68
2021/01/12 05:50:33;;;;;;;;;;;;;;;;;;4995404;28;20400;-68
2021/01/12 05:53:01;;;;;;;;;;;;;;;;;;4992812;28;19936;-68
2021/01/12 05:55:28;;;;;;;;;;;;;;;;;;4992486;28;19993;-67
2021/01/12 05:57:54;;;;;;;;;;;;;;;;;;4991933;28;19930;-67
2021/01/12 06:00:21;;;;;;;;;;;;;;;;;;4991974;28;19930;-68
2021/01/12 06:02:47;;;;;;;;;;;;;;;;;;4991532;28;20343;-69
2021/01/12 06:05:14;;;;;;;;;;;;;;;;;;4993039;28;19932;-67
2021/01/12 06:07:40;;;;;;;;;;;;;;;;;;4991382;28;19934;-68
2021/01/12 06:10:07;;;;;;;;;;;;;;;;;;4991008;28;19932;-69
2021/01/12 06:12:33;;;;;;;;;;;;;;;;;;4990945;28;19926;-70
2021/01/12 06:14:59;;;;;;;;;;;;;;;;;;4983788;28;20347;-67
2021/01/12 06:17:26;;;;;;;;;;;;;;;;;;4991185;28;19988;-65
2021/01/12 06:19:52;;;;;;;;;;;;;;;;;;4991312;28;19926;-66
2021/01/12 06:22:19;;;;;;;;;;;;;;;;;;4992504;28;19933;-67
2021/01/12 06:24:45;;;;;;;;;;;;;;;;;;4990973;28;19946;-67
2021/01/12 06:27:12;;;;;;;;;;;;;;;;;;4990745;28;20408;-67
2021/01/12 06:29:38;;;;;;;;;;;;;;;;;;4991083;28;19930;-67
2021/01/12 06:32:05;;;;;;;;;;;;;;;;;;4989044;28;19930;-67
2021/01/12 06:34:32;;;;;;;;;;;;;;;;;;4990981;28;20013;-67
2021/01/12 06:36:58;;;;;;;;;;;;;;;;;;4992025;28;19980;-68
2021/01/12 06:39:25;;;;;;;;;;;;;;;;;;4991227;28;19926;-67
2021/01/12 06:41:51;;;;;;;;;;;;;;;;;;4991170;28;19932;-67
2021/01/12 06:44:18;;;;;;;;;;;;;;;;;;4982417;28;19949;-67
2021/01/12 06:46:44;;;;;;;;;;;;;;;;;;4989548;28;19949;-67
2021/01/12 06:49:11;;;;;;;;;;;;;;;;;;4988912;28;19929;-67
2021/01/12 06:51:37;;;;;;;;;;;;;;;;;;4989516;28;19960;-66
2021/01/12 06:54:03;;;;;;;;;;;;;;;;;;4986661;28;19932;-67
2021/01/12 06:56:30;;;;;;;;;;;;;;;;;;4991912;28;19936;-67
2021/01/12 06:58:56;;;;;;;;;;;;;;;;;;4991975;28;19932;-68
2021/01/12 07:01:23;;;;;;;;;;;;;;;;;;4989789;28;20391;-69
2021/01/12 07:03:49;;;;;;;;;;;;;;;;;;4991551;28;19926;-67
2021/01/12 07:06:16;;;;;;;;;;;;;;;;;;4991198;28;20128;-67
2021/01/12 07:08:42;;;;;;;;;;;;;;;;;;4992584;28;19936;-67
2021/01/12 07:11:09;;;;;;;;;;;;;;;;;;4989926;28;19926;-68
2021/01/12 07:13:35;;;;;;;;;;;;;;;;;;4989910;28;19932;-67
2021/01/12 07:16:01;;;;;;;;;;;;;;;;;;4993563;28;19926;-67
2021/01/12 07:18:28;;;;;;;;;;;;;;;;;;4992766;28;20017;-67
2021/01/12 07:20:54;;;;;;;;;;;;;;;;;;4993744;28;19934;-67
2021/01/12 07:23:21;;;;;;;;;;;;;;;;;;4992882;28;19937;-68
2021/01/12 07:25:47;;;;;;;;;;;;;;;;;;4993297;28;19980;-68
2021/01/12 07:28:14;;;;;;;;;;;;;;;;;;4994347;28;20559;-68
2021/01/12 07:30:40;;;;;;;;;;;;;;;;;;4988009;28;19933;-67
2021/01/12 07:33:07;;;;;;;;;;;;;;;;;;4991746;28;20384;-68
2021/01/12 07:35:33;;;;;;;;;;;;;;;;;;4995251;28;19933;-68
2021/01/12 07:38:00;;;;;;;;;;;;;;;;;;4994158;28;19929;-65
2021/01/12 07:40:26;;;;;;;;;;;;;;;;;;4993146;28;19925;-66
2021/01/12 07:42:52;;;;;;;;;;;;;;;;;;4994287;28;20316;-66
2021/01/12 07:45:19;;;;;;;;;;;;;;;;;;4994022;28;20373;-66
2021/01/12 07:47:45;;;;;;;;;;;;;;;;;;4993705;28;19934;-66
2021/01/12 07:50:12;;;;;;;;;;;;;;;;;;4990527;28;19932;-67
2021/01/12 07:52:39;;;;;;;;;;;;;;;;;;4994002;28;20297;-67
2021/01/12 07:55:05;;;;;;;;;;;;;;;;;;4989173;28;19933;-69
2021/01/12 07:57:31;;;;;;;;;;;;;;;;;;4993247;28;19988;-67
2021/01/12 07:59:58;;;;;;;;;;;;;;;;;;4993828;28;19979;-67
2021/01/12 08:02:25;;;;;;;;;;;;;;;;;;4992680;28;20463;-68
2021/01/12 08:04:51;;;;;;;;;;;;;;;;;;4992924;28;19930;-68
2021/01/12 08:07:17;;;;;;;;;;;;;;;;;;4993067;28;19973;-68
2021/01/12 08:09:44;;;;;;;;;;;;;;;;;;4990906;28;19926;-68
2021/01/12 08:12:10;;;;;;;;;;;;;;;;;;4993771;28;20304;-67
2021/01/12 08:14:37;;;;;;;;;;;;;;;;;;4994185;28;19956;-68
2021/01/12 08:17:05;;;;;;;;;;;;;;;;;;4992128;28;19926;-68
2021/01/12 08:19:31;;;;;;;;;;;;;;;;;;4993655;28;19929;-67
2021/01/12 08:21:58;;;;;;;;;;;;;;;;;;4993676;28;19925;-68
2021/01/12 08:24:25;;;;;;;;;;;;;;;;;;4993331;28;20495;-68
2021/01/12 08:26:51;;;;;;;;;;;;;;;;;;4993633;28;19933;-69
2021/01/12 08:29:18;;;;;;;;;;;;;;;;;;4993183;28;19925;-67
2021/01/12 08:31:44;;;;;;;;;;;;;;;;;;4991942;28;19973;-68
2021/01/12 08:34:11;;;;;;;;;;;;;;;;;;4988229;28;19932;-68
2021/01/12 08:36:37;;;;;;;;;;;;;;;;;;4986966;28;19933;-68
2021/01/12 08:39:04;;;;;;;;;;;;;;;;;;4993768;28;19932;-68
2021/01/12 08:41:32;;;;;;;;;;;;;;;;;;4993469;28;20393;-69
2021/01/12 08:43:58;;;;;;;;;;;;;;;;;;4994888;28;20392;-68
2021/01/12 08:46:25;;;;;;;;;;;;;;;;;;4985470;28;19977;-70
2021/01/12 08:48:51;;;;;;;;;;;;;;;;;;4993923;28;20418;-69
2021/01/12 08:51:18;;;;;;;;;;;;;;;;;;4992404;28;19932;-68
2021/01/12 08:53:44;;;;;;;;;;;;;;;;;;4993676;28;19936;-68
2021/01/12 08:56:11;;;;;;;;;;;;;;;;;;4992396;28;19925;-69
2021/01/12 08:58:37;;;;;;;;;;;;;;;;;;4993092;28;19980;-70
2021/01/12 09:01:04;;;;;;;;;;;;;;;;;;4990192;28;19930;-68
2021/01/12 09:03:31;;;;;;;;;;;;;;;;;;4993845;28;20484;-67
2021/01/12 09:05:57;;;;;;;;;;;;;;;;;;4989551;28;19926;-69
2021/01/12 09:08:24;;;;;;;;;;;;;;;;;;4993241;28;19980;-67
2021/01/12 09:10:50;;;;;;;;;;;;;;;;;;4988435;28;19999;-68
2021/01/12 09:13:17;;;;;;;;;;;;;;;;;;4993206;28;20028;-69
2021/01/12 09:15:44;;;;;;;;;;;;;;;;;;4988438;28;19930;-69
2021/01/12 09:18:13;;;;;;;;;;;;;;;;;;4992177;28;19929;-70
2021/01/12 09:20:39;;;;;;;;;;;;;;;;;;4991136;28;20412;-68
2021/01/12 09:23:06;;;;;;;;;;;;;;;;;;4994748;28;19926;-67
2021/01/12 09:25:33;;;;;;;;;;;;;;;;;;4995934;28;19926;-68
2021/01/12 09:28:00;;;;;;;;;;;;;;;;;;4992852;28;19976;-68
2021/01/12 09:30:26;;;;;;;;;;;;;;;;;;4988560;28;20342;-70
2021/01/12 09:32:53;;;;;;;;;;;;;;;;;;4992980;28;19925;-69
2021/01/12 09:35:19;;;;;;;;;;;;;;;;;;4992035;28;19948;-68
2021/01/12 09:37:46;;;;;;;;;;;;;;;;;;4993899;28;19926;-67
2021/01/12 09:40:12;;;;;;;;;;;;;;;;;;4994982;28;19926;-69
2021/01/12 09:42:39;;;;;;;;;;;;;;;;;;4991543;28;20384;-68
2021/01/12 09:45:05;;;;;;;;;;;;;;;;;;4992412;28;19926;-69
2021/01/12 09:47:32;;;;;;;;;;;;;;;;;;4992318;28;20380;-70
2021/01/12 09:49:58;;;;;;;;;;;;;;;;;;4991472;28;19966;-68
2021/01/12 09:52:25;;;;;;;;;;;;;;;;;;4989906;28;20419;-68
2021/01/12 09:54:51;;;;;;;;;;;;;;;;;;4985312;28;20012;-69
2021/01/12 09:57:18;;;;;;;;;;;;;;;;;;4987503;28;19934;-69
2021/01/12 09:59:44;;;;;;;;;;;;;;;;;;4982998;28;19998;-68
2021/01/12 10:02:11;;;;;;;;;;;;;;;;;;4982593;28;19988;-70
2021/01/12 10:04:37;;;;;;;;;;;;;;;;;;4985080;28;19934;-68
2021/01/12 10:07:04;;;;;;;;;;;;;;;;;;4985010;28;19936;-68
2021/01/12 10:09:30;;;;;;;;;;;;;;;;;;4985017;28;20311;-70
2021/01/12 10:11:57;;;;;;;;;;;;;;;;;;4984005;28;19929;-68
2021/01/12 10:14:24;;;;;;;;;;;;;;;;;;4984102;28;19934;-69
2021/01/12 10:16:50;;;;;;;;;;;;;;;;;;4984832;28;19941;-69
2021/01/12 10:19:17;;;;;;;;;;;;;;;;;;4982483;28;19934;-69
2021/01/12 10:21:43;;;;;;;;;;;;;;;;;;4984372;28;19940;-70
2021/01/12 10:24:10;;;;;;;;;;;;;;;;;;4982497;28;20025;-69
2021/01/12 10:26:37;;;;;;;;;;;;;;;;;;4982717;28;20406;-70
2021/01/12 10:29:04;;;;;;;;;;;;;;;;;;4983085;28;19940;-69
2021/01/12 10:31:31;;;;;;;;;;;;;;;;;;4982693;28;19940;-69
2021/01/12 10:33:57;;;;;;;;;;;;;;;;;;4982740;28;19926;-68
2021/01/12 10:36:24;;;;;;;;;;;;;;;;;;4980975;28;19934;-67
2021/01/12 10:38:50;;;;;;;;;;;;;;;;;;4988602;28;20491;-69
2021/01/12 10:41:17;;;;;;;;;;;;;;;;;;4991315;28;19984;-70
2021/01/12 10:43:43;;;;;;;;;;;;;;;;;;4991861;28;19932;-69
2021/01/12 10:46:10;;;;;;;;;;;;;;;;;;4991967;28;20024;-69
2021/01/12 10:48:36;;;;;;;;;;;;;;;;;;4991354;28;20381;-69
2021/01/12 10:51:03;;;;;;;;;;;;;;;;;;4989407;28;19925;-68
2021/01/12 10:53:30;;;;;;;;;;;;;;;;;;4991347;28;19960;-68
2021/01/12 10:55:57;;;;;;;;;;;;;;;;;;4991326;28;20303;-68
2021/01/12 10:58:24;;;;;;;;;;;;;;;;;;4989439;28;19933;-68
2021/01/12 11:00:51;;;;;;;;;;;;;;;;;;4991301;28;20107;-67
2021/01/12 11:03:18;;;;;;;;;;;;;;;;;;4991558;28;19925;-69
2021/01/12 11:05:45;;;;;;;;;;;;;;;;;;4986576;28;20296;-68
2021/01/12 11:08:12;;;;;;;;;;;;;;;;;;4990512;28;19930;-67
2021/01/12 11:10:39;;;;;;;;;;;;;;;;;;4987378;28;19933;-67
2021/01/12 11:13:06;;;;;;;;;;;;;;;;;;4992933;28;19954;-68
2021/01/12 11:15:32;;;;;;;;;;;;;;;;;;4992155;28;20168;-68
2021/01/12 11:17:59;;;;;;;;;;;;;;;;;;4992251;28;19925;-69
2021/01/12 11:20:25;;;;;;;;;;;;;;;;;;4988963;28;20023;-68
2021/01/12 11:22:52;;;;;;;;;;;;;;;;;;4989518;28;19976;-68
2021/01/12 11:25:19;;;;;;;;;;;;;;;;;;4991535;28;19971;-68
2021/01/12 11:27:46;;;;;;;;;;;;;;;;;;4990333;28;20021;-69
2021/01/12 11:30:13;;;;;;;;;;;;;;;;;;4988832;28;20021;-68
2021/01/12 11:32:43;;;;;;;;;;;;;;;;;;4987753;28;20315;-67
2021/01/12 11:35:10;;;;;;;;;;;;;;;;;;4986350;28;20392;-67
2021/01/12 11:37:36;;;;;;;;;;;;;;;;;;4990754;28;20304;-67
2021/01/12 11:40:02;;;;;;;;;;;;;;;;;;4990132;28;20020;-67
2021/01/12 11:42:29;;;;;;;;;;;;;;;;;;4990369;28;20021;-70
2021/01/12 11:44:55;;;;;;;;;;;;;;;;;;4991311;28;20418;-69
2021/01/12 11:47:22;;;;;;;;;;;;;;;;;;4991586;28;20012;-66
2021/01/12 11:49:48;;;;;;;;;;;;;;;;;;4991554;28;19930;-68
2021/01/12 11:52:15;;;;;;;;;;;;;;;;;;4989995;28;19992;-69
2021/01/12 11:54:41;;;;;;;;;;;;;;;;;;4989082;28;20017;-69
2021/01/12 11:57:09;;;;;;;;;;;;;;;;;;4991782;28;20419;-65
2021/01/12 11:59:36;;;;;;;;;;;;;;;;;;4986277;28;20025;-69
2021/01/12 12:02:03;;;;;;;;;;;;;;;;;;4983768;28;19988;-68
2021/01/12 12:04:29;;;;;;;;;;;;;;;;;;4995481;28;19930;-67
2021/01/12 12:06:58;;;;;;;;;;;;;;;;;;5000166;28;19926;-68
2021/01/12 12:09:24;;;;;;;;;;;;;;;;;;4996061;28;20296;-66
2021/01/12 12:11:51;;;;;;;;;;;;;;;;;;4994025;28;19961;-68
2021/01/12 12:14:17;;;;;;;;;;;;;;;;;;5001393;28;19985;-69
2021/01/12 12:16:44;;;;;;;;;;;;;;;;;;4987044;28;19980;-68
2021/01/12 12:19:10;;;;;;;;;;;;;;;;;;5000829;28;19926;-67
2021/01/12 12:24:05;;;;;;;;;;;;;;;;;;4992876;28;19933;-69
2021/01/12 12:26:32;;;;;;;;;;;;;;;;;;4994067;28;19926;-69
2021/01/12 12:28:58;;;;;;;;;;;;;;;;;;4994826;28;20032;-69
2021/01/12 12:31:25;;;;;;;;;;;;;;;;;;4988173;28;20429;-68
2021/01/12 12:33:51;;;;;;;;;;;;;;;;;;5004701;28;19961;-67
2021/01/12 12:36:18;;;;;;;;;;;;;;;;;;4997090;28;20016;-69
2021/01/12 12:38:45;;;;;;;;;;;;;;;;;;4991018;28;20277;-67
2021/01/12 12:41:11;;;;;;;;;;;;;;;;;;4996130;28;19932;-68
2021/01/12 12:43:38;;;;;;;;;;;;;;;;;;4991759;28;20020;-67
2021/01/12 12:46:05;;;;;;;;;;;;;;;;;;4989776;28;19927;-69
2021/01/12 12:48:31;;;;;;;;;;;;;;;;;;4992489;28;20023;-67
2021/01/12 12:50:59;;;;;;;;;;;;;;;;;;4987530;28;20087;-69
2021/01/12 12:53:26;;;;;;;;;;;;;;;;;;4994111;28;19926;-68
2021/01/12 12:55:52;;;;;;;;;;;;;;;;;;4991925;28;20399;-68
2021/01/12 12:58:19;;;;;;;;;;;;;;;;;;4988092;28;19926;-68
2021/01/12 13:00:46;;;;;;;;;;;;;;;;;;4986694;28;20304;-68
2021/01/12 13:03:13;;;;;;;;;;;;;;;;;;4991431;28;19965;-68
2021/01/12 13:05:39;;;;;;;;;;;;;;;;;;4988138;28;20013;-69
2021/01/12 13:08:06;;;;;;;;;;;;;;;;;;4993474;28;19997;-69
2021/01/12 13:10:32;;;;;;;;;;;;;;;;;;4992369;28;19964;-69
2021/01/12 13:12:59;;;;;;;;;;;;;;;;;;4988915;28;20025;-69
2021/01/12 13:15:25;;;;;;;;;;;;;;;;;;4994625;28;19932;-69
2021/01/12 13:17:52;;;;;;;;;;;;;;;;;;4990412;28;20346;-68
2021/01/12 13:20:18;;;;;;;;;;;;;;;;;;4991643;28;20261;-69
2021/01/12 13:22:45;;;;;;;;;;;;;;;;;;4989837;28;19973;-69
2021/01/12 13:25:11;;;;;;;;;;;;;;;;;;4986851;28;20036;-70
2021/01/12 13:27:38;;;;;;;;;;;;;;;;;;4989805;28;19934;-69
2021/01/12 13:30:06;;;;;;;;;;;;;;;;;;4991022;28;19925;-69
2021/01/12 13:32:33;;;;;;;;;;;;;;;;;;4990273;28;19932;-68
2021/01/12 13:34:59;;;;;;;;;;;;;;;;;;4989096;28;19926;-67
2021/01/12 13:37:26;;;;;;;;;;;;;;;;;;4992230;28;20028;-68
2021/01/12 13:39:54;;;;;;;;;;;;;;;;;;4991993;28;20372;-68
2021/01/12 13:42:21;;;;;;;;;;;;;;;;;;4987696;28;19972;-69
2021/01/12 13:44:47;;;;;;;;;;;;;;;;;;4990246;28;19934;-68
2021/01/12 13:47:14;;;;;;;;;;;;;;;;;;4991962;28;20024;-68
2021/01/12 13:49:40;;;;;;;;;;;;;;;;;;4990286;28;19930;-68
2021/01/12 13:52:07;;;;;;;;;;;;;;;;;;4990731;28;20036;-69
2021/01/12 13:54:33;;;;;;;;;;;;;;;;;;4990062;28;19925;-68
2021/01/12 13:57:01;;;;;;;;;;;;;;;;;;4986170;28;19940;-68
2021/01/12 13:59:27;;;;;;;;;;;;;;;;;;4986673;28;19936;-68
2021/01/12 14:01:54;;;;;;;;;;;;;;;;;;4990002;28;19925;-68
2021/01/12 14:04:20;;;;;;;;;;;;;;;;;;4993202;28;20410;-68
2021/01/12 14:06:47;;;;;;;;;;;;;;;;;;4992081;28;20032;-69
2021/01/12 14:09:13;;;;;;;;;;;;;;;;;;4992344;28;19926;-68
2021/01/12 14:11:40;;;;;;;;;;;;;;;;;;4985195;28;19940;-68
2021/01/12 14:14:06;;;;;;;;;;;;;;;;;;4991503;28;20394;-69
2021/01/12 14:16:33;;;;;;;;;;;;;;;;;;4988950;28;20016;-70
2021/01/12 14:19:00;;;;;;;;;;;;;;;;;;4992015;28;19937;-70
2021/01/12 14:21:26;;;;;;;;;;;;;;;;;;4987218;28;19934;-69
2021/01/12 14:23:53;;;;;;;;;;;;;;;;;;4988074;28;19976;-68
2021/01/12 14:26:19;;;;;;;;;;;;;;;;;;4987706;28;19972;-68
2021/01/12 14:28:46;;;;;;;;;;;;;;;;;;4987078;28;19965;-68
2021/01/12 14:31:12;;;;;;;;;;;;;;;;;;4987982;28;19933;-69
2021/01/12 14:33:39;;;;;;;;;;;;;;;;;;4989828;28;19930;-69
2021/01/12 14:36:05;;;;;;;;;;;;;;;;;;4989278;28;19973;-69
2021/01/12 14:38:32;;;;;;;;;;;;;;;;;;4990686;28;19979;-69
2021/01/12 14:40:58;;;;;;;;;;;;;;;;;;4988773;28;20394;-69
2021/01/12 14:43:25;;;;;;;;;;;;;;;;;;4985860;28;20031;-67
2021/01/12 14:45:51;;;;;;;;;;;;;;;;;;4988768;28;20013;-69
2021/01/12 14:48:20;;;;;;;;;;;;;;;;;;4989383;28;19926;-69
2021/01/12 14:50:46;;;;;;;;;;;;;;;;;;4990537;28;19926;-69
2021/01/12 14:53:13;;;;;;;;;;;;;;;;;;4991104;28;20261;-69
2021/01/12 14:55:39;;;;;;;;;;;;;;;;;;4991151;28;20008;-68
2021/01/12 14:58:06;;;;;;;;;;;;;;;;;;4991189;28;20299;-68
2021/01/12 15:00:32;;;;;;;;;;;;;;;;;;4990824;28;20021;-68
2021/01/12 15:02:59;;;;;;;;;;;;;;;;;;4990714;28;19925;-68
2021/01/12 15:05:25;;;;;;;;;;;;;;;;;;4990959;28;20299;-68
2021/01/12 15:07:52;;;;;;;;;;;;;;;;;;4989944;28;20357;-68
2021/01/12 15:10:18;;;;;;;;;;;;;;;;;;4990446;28;19926;-68
2021/01/12 15:12:45;;;;;;;;;;;;;;;;;;4990651;28;19925;-68
2021/01/12 15:15:11;;;;;;;;;;;;;;;;;;4991516;28;20027;-68
2021/01/12 15:17:38;;;;;;;;;;;;;;;;;;4990530;28;19933;-68
2021/01/12 15:20:04;;;;;;;;;;;;;;;;;;4990819;28;19936;-68
2021/01/12 15:22:31;;;;;;;;;;;;;;;;;;4991215;28;19933;-69
2021/01/12 15:24:58;;;;;;;;;;;;;;;;;;4991337;28;19926;-68
2021/01/12 15:27:24;;;;;;;;;;;;;;;;;;4989988;28;19975;-68
2021/01/12 15:29:52;;;;;;;;;;;;;;;;;;4988656;28;20317;-68
2021/01/12 15:32:18;;;;;;;;;;;;;;;;;;4990658;28;20060;-68
2021/01/12 15:34:46;;;;;;;;;;;;;;;;;;4990652;28;19926;-68
2021/01/12 15:37:13;;;;;;;;;;;;;;;;;;4995167;28;20277;-68
2021/01/12 15:39:39;;;;;;;;;;;;;;;;;;4994482;28;19934;-68
2021/01/12 15:42:09;;;;;;;;;;;;;;;;;;4993605;28;20029;-68
2021/01/12 15:44:35;;;;;;;;;;;;;;;;;;4994055;28;19926;-68
2021/01/12 15:47:02;;;;;;;;;;;;;;;;;;4994424;28;20367;-67
2021/01/12 15:49:28;;;;;;;;;;;;;;;;;;4993188;28;19930;-68
2021/01/12 15:51:55;;;;;;;;;;;;;;;;;;4994451;28;19932;-68
2021/01/12 15:54:21;;;;;;;;;;;;;;;;;;4992704;28;19926;-68
2021/01/12 15:56:48;;;;;;;;;;;;;;;;;;4993920;28;20446;-68
2021/01/12 15:59:14;;;;;;;;;;;;;;;;;;4981015;28;19934;-68
2021/01/12 16:01:41;;;;;;;;;;;;;;;;;;4981969;28;19934;-68
2021/01/12 16:04:07;;;;;;;;;;;;;;;;;;4982886;28;19929;-68
2021/01/12 16:06:34;;;;;;;;;;;;;;;;;;4982383;28;19979;-68
2021/01/12 16:09:00;;;;;;;;;;;;;;;;;;4982197;28;20033;-68
2021/01/12 16:11:27;;;;;;;;;;;;;;;;;;4980972;28;20319;-67
2021/01/12 16:13:53;;;;;;;;;;;;;;;;;;4982056;28;20028;-67
2021/01/12 16:16:20;;;;;;;;;;;;;;;;;;4981625;28;19993;-67
2021/01/12 16:18:46;;;;;;;;;;;;;;;;;;4981833;28;20025;-67
2021/01/12 16:21:13;;;;;;;;;;;;;;;;;;4981891;28;19933;-68
2021/01/12 16:23:39;;;;;;;;;;;;;;;;;;4980960;28;19944;-68
2021/01/12 16:26:06;;;;;;;;;;;;;;;;;;4982450;28;19926;-68
2021/01/12 16:28:32;;;;;;;;;;;;;;;;;;4980888;28;19930;-67
2021/01/12 16:30:59;;;;;;;;;;;;;;;;;;4983012;28;19940;-67
2021/01/12 16:33:25;;;;;;;;;;;;;;;;;;4983139;28;19956;-67
2021/01/12 16:35:52;;;;;;;;;;;;;;;;;;4981946;28;19940;-67
2021/01/12 16:38:19;;;;;;;;;;;;;;;;;;4981828;28;19934;-67
2021/01/12 16:40:46;;;;;;;;;;;;;;;;;;4981777;28;19934;-67
2021/01/12 16:43:12;;;;;;;;;;;;;;;;;;4981802;28;19934;-67